Time;durP1;ratioP1;P1;durP2;ratioP2;P2;SDS_P1;SDS_P2;PMS_P1;PMS_P2;Temp;Humidity;BMP_temperature;BMP_pressure;BME280_temperature;BME280_humidity;BME280_pressure;Samples;Min_cycle;Max_cycle;Signal;HPM_P1;HPM_P2
2024/03/10 00:02:15;;;;;;;;;;;;;;;;;;5060831;28;19932;-78
2024/03/10 00:04:43;;;;;;;;;;;;;;;;;;5069528;28;19958;-79
2024/03/10 00:07:10;;;;;;;;;;;;;;;;;;5070905;28;20039;-79
2024/03/10 00:09:37;;;;;;;;;;;;;;;;;;5071234;28;20015;-78
2024/03/10 00:12:04;;;;;;;;;;;;;;;;;;5069897;28;19935;-78
2024/03/10 00:14:32;;;;;;;;;;;;;;;;;;5065763;28;19934;-77
2024/03/10 00:16:59;;;;;;;;;;;;;;;;;;5064468;28;20375;-78
2024/03/10 00:19:26;;;;;;;;;;;;;;;;;;5070633;28;20397;-78
2024/03/10 00:21:54;;;;;;;;;;;;;;;;;;5070620;28;19974;-78
2024/03/10 00:24:21;;;;;;;;;;;;;;;;;;5069820;28;19929;-78
2024/03/10 00:26:49;;;;;;;;;;;;;;;;;;5070643;28;19955;-77
2024/03/10 00:29:16;;;;;;;;;;;;;;;;;;5066462;28;20422;-78
2024/03/10 00:31:44;;;;;;;;;;;;;;;;;;5067951;28;19929;-79
2024/03/10 00:34:11;;;;;;;;;;;;;;;;;;5069206;28;19976;-79
2024/03/10 00:36:38;;;;;;;;;;;;;;;;;;5070312;28;19936;-78
2024/03/10 00:39:05;;;;;;;;;;;;;;;;;;5070428;28;19975;-78
2024/03/10 00:41:33;;;;;;;;;;;;;;;;;;5077260;28;19932;-77
2024/03/10 00:44:00;;;;;;;;;;;;;;;;;;5077852;28;19932;-78
2024/03/10 00:46:28;;;;;;;;;;;;;;;;;;5078466;28;19936;-78
2024/03/10 00:48:55;;;;;;;;;;;;;;;;;;5076441;28;19947;-78
2024/03/10 00:51:22;;;;;;;;;;;;;;;;;;5078660;28;20364;-78
2024/03/10 00:53:49;;;;;;;;;;;;;;;;;;5079350;28;19932;-78
2024/03/10 00:56:19;;;;;;;;;;;;;;;;;;5080463;28;19928;-78
2024/03/10 00:58:46;;;;;;;;;;;;;;;;;;5076718;28;19986;-77
2024/03/10 01:01:13;;;;;;;;;;;;;;;;;;5069989;28;19939;-78
2024/03/10 01:03:40;;;;;;;;;;;;;;;;;;5079886;28;19932;-80
2024/03/10 01:06:07;;;;;;;;;;;;;;;;;;5076983;28;19986;-80
2024/03/10 01:08:34;;;;;;;;;;;;;;;;;;5076935;28;19971;-81
2024/03/10 01:11:01;;;;;;;;;;;;;;;;;;5075163;28;19971;-80
2024/03/10 01:13:28;;;;;;;;;;;;;;;;;;5077636;28;19933;-78
2024/03/10 01:15:56;;;;;;;;;;;;;;;;;;5078972;28;20299;-78
2024/03/10 01:18:23;;;;;;;;;;;;;;;;;;5074710;28;19932;-79
2024/03/10 01:20:50;;;;;;;;;;;;;;;;;;5074375;28;19928;-79
2024/03/10 01:23:17;;;;;;;;;;;;;;;;;;5078509;28;19943;-77
2024/03/10 01:25:44;;;;;;;;;;;;;;;;;;5078931;28;19990;-77
2024/03/10 01:28:11;;;;;;;;;;;;;;;;;;5075150;28;19935;-78
2024/03/10 01:30:39;;;;;;;;;;;;;;;;;;5075642;28;20175;-79
2024/03/10 01:33:06;;;;;;;;;;;;;;;;;;5078721;28;20420;-78
2024/03/10 01:35:33;;;;;;;;;;;;;;;;;;5079170;28;20306;-79
2024/03/10 01:38:00;;;;;;;;;;;;;;;;;;5077760;28;19928;-77
2024/03/10 01:40:27;;;;;;;;;;;;;;;;;;5078567;28;19932;-78
2024/03/10 01:42:55;;;;;;;;;;;;;;;;;;5064049;28;19966;-78
2024/03/10 01:45:22;;;;;;;;;;;;;;;;;;5059480;28;20135;-78
2024/03/10 01:47:49;;;;;;;;;;;;;;;;;;5063302;28;19939;-78
2024/03/10 01:50:16;;;;;;;;;;;;;;;;;;5068138;28;19970;-79
2024/03/10 01:52:44;;;;;;;;;;;;;;;;;;5064575;28;20414;-78
2024/03/10 01:55:11;;;;;;;;;;;;;;;;;;5071311;28;19982;-79
2024/03/10 01:57:38;;;;;;;;;;;;;;;;;;5066030;28;20002;-78
2024/03/10 02:00:06;;;;;;;;;;;;;;;;;;5071222;28;19932;-79
2024/03/10 02:02:33;;;;;;;;;;;;;;;;;;5060971;28;20035;-78
2024/03/10 02:05:00;;;;;;;;;;;;;;;;;;5065292;28;19940;-78
2024/03/10 02:07:28;;;;;;;;;;;;;;;;;;5064989;28;19964;-80
2024/03/10 02:09:56;;;;;;;;;;;;;;;;;;5065915;28;19928;-80
2024/03/10 02:12:23;;;;;;;;;;;;;;;;;;5071061;28;19939;-80
2024/03/10 02:14:50;;;;;;;;;;;;;;;;;;5067688;28;19935;-79
2024/03/10 02:17:17;;;;;;;;;;;;;;;;;;5071464;28;20383;-79
2024/03/10 02:19:44;;;;;;;;;;;;;;;;;;5066367;28;19924;-79
2024/03/10 02:22:11;;;;;;;;;;;;;;;;;;5068349;28;20047;-79
2024/03/10 02:24:38;;;;;;;;;;;;;;;;;;5070380;28;19997;-79
2024/03/10 02:27:07;;;;;;;;;;;;;;;;;;5066605;28;19990;-80
2024/03/10 02:29:49;;;;;;;;;;;;;;;;;;5066885;28;19986;-80
2024/03/10 02:48:45;;;;;;;;;;;;;;;;;;5067665;28;19938;-79
2024/03/10 02:51:12;;;;;;;;;;;;;;;;;;5071610;28;19936;-79
2024/03/10 02:53:39;;;;;;;;;;;;;;;;;;5069234;28;20444;-80
2024/03/10 02:56:06;;;;;;;;;;;;;;;;;;5069964;28;20349;-79
2024/03/10 02:58:33;;;;;;;;;;;;;;;;;;5070323;28;19934;-78
2024/03/10 03:01:00;;;;;;;;;;;;;;;;;;5068689;28;19974;-76
2024/03/10 03:03:27;;;;;;;;;;;;;;;;;;5067036;28;19982;-78
2024/03/10 03:05:54;;;;;;;;;;;;;;;;;;5068966;28;19929;-77
2024/03/10 03:08:20;;;;;;;;;;;;;;;;;;5069143;28;19928;-78
2024/03/10 03:10:48;;;;;;;;;;;;;;;;;;5067897;28;19924;-79
2024/03/10 03:13:15;;;;;;;;;;;;;;;;;;5070019;28;19932;-78
2024/03/10 03:15:42;;;;;;;;;;;;;;;;;;5067576;28;19937;-78
2024/03/10 03:18:09;;;;;;;;;;;;;;;;;;5066453;28;19928;-78
2024/03/10 03:20:36;;;;;;;;;;;;;;;;;;5064424;28;19932;-78
2024/03/10 03:23:04;;;;;;;;;;;;;;;;;;5067549;28;19928;-78
2024/03/10 03:25:31;;;;;;;;;;;;;;;;;;5065024;28;19929;-78
2024/03/10 03:27:58;;;;;;;;;;;;;;;;;;5068021;28;19974;-78
2024/03/10 03:30:25;;;;;;;;;;;;;;;;;;5067206;28;19933;-78
2024/03/10 03:32:54;;;;;;;;;;;;;;;;;;5070051;28;20022;-75
2024/03/10 03:35:21;;;;;;;;;;;;;;;;;;5065625;28;19948;-76
2024/03/10 03:37:48;;;;;;;;;;;;;;;;;;5062968;28;19928;-76
2024/03/10 03:40:16;;;;;;;;;;;;;;;;;;5062049;28;19929;-77
2024/03/10 03:42:43;;;;;;;;;;;;;;;;;;5066324;28;19925;-76
2024/03/10 03:45:10;;;;;;;;;;;;;;;;;;5059662;28;19933;-77
2024/03/10 03:47:37;;;;;;;;;;;;;;;;;;5064388;28;20029;-82
2024/03/10 03:50:05;;;;;;;;;;;;;;;;;;5065588;28;19928;-75
2024/03/10 03:52:32;;;;;;;;;;;;;;;;;;5056870;28;19928;-71
2024/03/10 03:54:59;;;;;;;;;;;;;;;;;;5066900;28;19928;-71
2024/03/10 03:57:26;;;;;;;;;;;;;;;;;;5069186;28;19994;-71
2024/03/10 03:59:53;;;;;;;;;;;;;;;;;;5066928;28;19932;-71
2024/03/10 04:02:25;;;;;;;;;;;;;;;;;;5069831;28;20429;-71
2024/03/10 04:04:52;;;;;;;;;;;;;;;;;;5069261;28;19928;-73
2024/03/10 04:07:19;;;;;;;;;;;;;;;;;;5069914;28;19932;-72
2024/03/10 04:09:46;;;;;;;;;;;;;;;;;;5069134;28;19929;-72
2024/03/10 04:12:13;;;;;;;;;;;;;;;;;;5063683;28;19981;-71
2024/03/10 04:14:41;;;;;;;;;;;;;;;;;;5058052;28;19976;-72
2024/03/10 04:17:08;;;;;;;;;;;;;;;;;;5068036;28;20019;-72
2024/03/10 04:19:36;;;;;;;;;;;;;;;;;;5067008;28;19971;-71
2024/03/10 04:22:03;;;;;;;;;;;;;;;;;;5064534;28;20456;-71
2024/03/10 04:24:31;;;;;;;;;;;;;;;;;;5062705;28;19932;-71
2024/03/10 04:26:58;;;;;;;;;;;;;;;;;;5069291;28;20399;-71
2024/03/10 04:29:25;;;;;;;;;;;;;;;;;;5061291;28;19930;-72
2024/03/10 04:31:52;;;;;;;;;;;;;;;;;;5066406;28;19936;-71
2024/03/10 04:34:20;;;;;;;;;;;;;;;;;;5071515;28;19928;-71
2024/03/10 04:36:47;;;;;;;;;;;;;;;;;;5066355;28;19989;-71
2024/03/10 04:39:14;;;;;;;;;;;;;;;;;;5053767;28;20460;-71
2024/03/10 04:41:41;;;;;;;;;;;;;;;;;;5068646;28;19964;-73
2024/03/10 04:44:08;;;;;;;;;;;;;;;;;;5068585;28;20013;-72
2024/03/10 04:46:35;;;;;;;;;;;;;;;;;;5066508;28;19968;-72
2024/03/10 04:49:03;;;;;;;;;;;;;;;;;;5068078;28;19936;-71
2024/03/10 04:51:30;;;;;;;;;;;;;;;;;;5067156;28;19928;-70
2024/03/10 04:53:57;;;;;;;;;;;;;;;;;;5067827;28;20013;-70
2024/03/10 04:56:25;;;;;;;;;;;;;;;;;;5069375;28;19956;-70
2024/03/10 04:58:53;;;;;;;;;;;;;;;;;;5068669;28;19928;-70
2024/03/10 05:01:22;;;;;;;;;;;;;;;;;;5060412;28;19935;-69
2024/03/10 05:03:49;;;;;;;;;;;;;;;;;;5057934;28;19928;-69
2024/03/10 05:06:16;;;;;;;;;;;;;;;;;;5067908;28;19932;-69
2024/03/10 05:08:43;;;;;;;;;;;;;;;;;;5067335;28;19982;-70
2024/03/10 05:11:10;;;;;;;;;;;;;;;;;;5062995;28;20009;-70
2024/03/10 05:13:38;;;;;;;;;;;;;;;;;;5068987;28;19956;-70
2024/03/10 05:16:05;;;;;;;;;;;;;;;;;;5069440;28;19936;-71
2024/03/10 05:18:32;;;;;;;;;;;;;;;;;;5072548;28;19951;-70
2024/03/10 05:20:59;;;;;;;;;;;;;;;;;;5063925;28;20632;-69
2024/03/10 05:23:26;;;;;;;;;;;;;;;;;;5071767;28;20011;-70
2024/03/10 05:25:53;;;;;;;;;;;;;;;;;;5073012;28;19951;-69
2024/03/10 05:28:20;;;;;;;;;;;;;;;;;;5071947;28;19986;-72
2024/03/10 05:30:48;;;;;;;;;;;;;;;;;;5069637;28;19928;-73
2024/03/10 05:33:15;;;;;;;;;;;;;;;;;;5072297;28;19934;-72
2024/03/10 05:35:42;;;;;;;;;;;;;;;;;;5071685;28;19974;-71
2024/03/10 05:38:09;;;;;;;;;;;;;;;;;;5066819;28;19963;-73
2024/03/10 05:40:36;;;;;;;;;;;;;;;;;;5068596;28;19935;-72
2024/03/10 05:43:03;;;;;;;;;;;;;;;;;;5072393;28;20465;-70
2024/03/10 05:45:31;;;;;;;;;;;;;;;;;;5072060;28;19932;-69
2024/03/10 05:47:58;;;;;;;;;;;;;;;;;;5072353;28;19932;-71
2024/03/10 05:50:25;;;;;;;;;;;;;;;;;;5067237;28;19959;-71
2024/03/10 05:52:53;;;;;;;;;;;;;;;;;;5070120;28;19936;-70
2024/03/10 05:55:20;;;;;;;;;;;;;;;;;;5071091;28;20036;-72
2024/03/10 05:57:47;;;;;;;;;;;;;;;;;;5063366;28;20395;-71
2024/03/10 06:00:17;;;;;;;;;;;;;;;;;;5068284;28;20681;-72
2024/03/10 06:02:45;;;;;;;;;;;;;;;;;;5071693;28;19932;-71
2024/03/10 06:05:13;;;;;;;;;;;;;;;;;;5067850;28;19952;-71
2024/03/10 06:07:40;;;;;;;;;;;;;;;;;;5056449;28;19935;-71
2024/03/10 06:10:07;;;;;;;;;;;;;;;;;;5063749;28;20025;-71
2024/03/10 06:12:34;;;;;;;;;;;;;;;;;;5067526;28;19989;-71
2024/03/10 06:15:01;;;;;;;;;;;;;;;;;;5068196;28;19994;-71
2024/03/10 06:17:33;;;;;;;;;;;;;;;;;;5068133;28;19974;-72
2024/03/10 06:25:30;;;;;;;;;;;;;;;;;;5066443;28;20638;-71
2024/03/10 06:27:57;;;;;;;;;;;;;;;;;;5068591;28;19975;-71
2024/03/10 06:30:24;;;;;;;;;;;;;;;;;;5066770;28;19936;-69
2024/03/10 06:32:51;;;;;;;;;;;;;;;;;;5062955;28;20014;-71
2024/03/10 06:35:19;;;;;;;;;;;;;;;;;;5066511;28;19929;-70
2024/03/10 06:37:48;;;;;;;;;;;;;;;;;;5067647;28;19928;-71
2024/03/10 06:40:15;;;;;;;;;;;;;;;;;;5060274;28;20489;-71
2024/03/10 06:42:42;;;;;;;;;;;;;;;;;;5069286;28;20337;-71
2024/03/10 06:45:09;;;;;;;;;;;;;;;;;;5071308;28;19929;-71
2024/03/10 06:47:36;;;;;;;;;;;;;;;;;;5053539;28;20053;-71
2024/03/10 06:50:04;;;;;;;;;;;;;;;;;;5056598;28;19928;-70
2024/03/10 06:52:32;;;;;;;;;;;;;;;;;;5070230;28;19932;-71
2024/03/10 06:55:00;;;;;;;;;;;;;;;;;;5065235;28;20751;-71
2024/03/10 06:57:28;;;;;;;;;;;;;;;;;;5061870;28;20719;-71
2024/03/10 06:59:55;;;;;;;;;;;;;;;;;;5062397;28;19928;-71
2024/03/10 07:02:22;;;;;;;;;;;;;;;;;;5068048;28;20467;-71
2024/03/10 07:04:49;;;;;;;;;;;;;;;;;;5065384;28;19971;-70
2024/03/10 07:07:16;;;;;;;;;;;;;;;;;;5070488;28;19929;-70
2024/03/10 07:09:44;;;;;;;;;;;;;;;;;;5069633;28;20391;-70
2024/03/10 07:12:11;;;;;;;;;;;;;;;;;;5062822;28;19933;-71
2024/03/10 07:14:39;;;;;;;;;;;;;;;;;;5060238;28;19929;-71
2024/03/10 07:17:07;;;;;;;;;;;;;;;;;;5072121;28;19927;-72
2024/03/10 07:19:36;;;;;;;;;;;;;;;;;;5072255;28;20019;-70
2024/03/10 07:22:03;;;;;;;;;;;;;;;;;;5065251;28;19928;-70
2024/03/10 07:24:30;;;;;;;;;;;;;;;;;;5064806;28;19928;-71
2024/03/10 07:26:58;;;;;;;;;;;;;;;;;;5056437;28;19986;-70
2024/03/10 07:29:25;;;;;;;;;;;;;;;;;;5064861;28;20005;-70
2024/03/10 07:31:52;;;;;;;;;;;;;;;;;;5063316;28;19932;-70
2024/03/10 07:34:20;;;;;;;;;;;;;;;;;;5070349;28;19928;-69
2024/03/10 07:36:48;;;;;;;;;;;;;;;;;;5068890;28;20392;-70
2024/03/10 07:39:15;;;;;;;;;;;;;;;;;;5069024;28;19950;-70
2024/03/10 07:41:42;;;;;;;;;;;;;;;;;;5070206;28;19974;-70
2024/03/10 07:44:09;;;;;;;;;;;;;;;;;;5069330;28;19928;-69
2024/03/10 07:46:37;;;;;;;;;;;;;;;;;;5063987;28;20406;-70
2024/03/10 07:49:06;;;;;;;;;;;;;;;;;;5068848;28;19928;-70
2024/03/10 07:51:33;;;;;;;;;;;;;;;;;;5074423;28;19934;-70
2024/03/10 07:54:01;;;;;;;;;;;;;;;;;;5067222;28;19975;-70
2024/03/10 07:56:28;;;;;;;;;;;;;;;;;;5069332;28;19928;-71
2024/03/10 07:58:56;;;;;;;;;;;;;;;;;;5068227;28;19933;-70
2024/03/10 08:01:23;;;;;;;;;;;;;;;;;;5060939;28;19976;-71
2024/03/10 08:03:50;;;;;;;;;;;;;;;;;;5068805;28;19934;-71
2024/03/10 08:06:18;;;;;;;;;;;;;;;;;;5070157;28;19928;-71
2024/03/10 08:08:45;;;;;;;;;;;;;;;;;;5068415;28;19989;-70
2024/03/10 08:11:12;;;;;;;;;;;;;;;;;;5068520;28;20353;-71
2024/03/10 08:13:40;;;;;;;;;;;;;;;;;;5070195;28;20334;-71
2024/03/10 08:16:07;;;;;;;;;;;;;;;;;;5067053;28;19928;-70
2024/03/10 08:18:34;;;;;;;;;;;;;;;;;;5064686;28;19928;-71
2024/03/10 08:21:01;;;;;;;;;;;;;;;;;;5064588;28;20165;-70
2024/03/10 08:23:28;;;;;;;;;;;;;;;;;;5061523;28;20395;-69
2024/03/10 08:25:55;;;;;;;;;;;;;;;;;;5066771;28;19997;-71
2024/03/10 08:28:22;;;;;;;;;;;;;;;;;;5055675;28;19933;-70
2024/03/10 08:30:50;;;;;;;;;;;;;;;;;;5069711;28;19929;-70
2024/03/10 08:33:17;;;;;;;;;;;;;;;;;;5066009;28;19936;-70
2024/03/10 08:35:44;;;;;;;;;;;;;;;;;;5067700;28;19932;-72
2024/03/10 08:38:11;;;;;;;;;;;;;;;;;;5066167;28;19928;-70
2024/03/10 08:40:38;;;;;;;;;;;;;;;;;;5054651;28;19975;-70
2024/03/10 08:43:05;;;;;;;;;;;;;;;;;;5060707;28;19932;-70
2024/03/10 08:45:33;;;;;;;;;;;;;;;;;;5062494;28;19928;-69
2024/03/10 08:48:04;;;;;;;;;;;;;;;;;;5068913;28;19974;-70
2024/03/10 08:50:31;;;;;;;;;;;;;;;;;;5068449;28;20425;-70
2024/03/10 08:52:58;;;;;;;;;;;;;;;;;;5068902;28;19963;-70
2024/03/10 08:55:25;;;;;;;;;;;;;;;;;;5068325;28;20037;-70
2024/03/10 08:57:52;;;;;;;;;;;;;;;;;;5070584;28;19933;-72
2024/03/10 09:00:20;;;;;;;;;;;;;;;;;;5066918;28;19929;-71
2024/03/10 09:02:47;;;;;;;;;;;;;;;;;;5057751;28;19928;-72
2024/03/10 09:05:15;;;;;;;;;;;;;;;;;;5055349;28;19928;-73
2024/03/10 09:07:42;;;;;;;;;;;;;;;;;;5056887;28;20002;-72
2024/03/10 09:10:09;;;;;;;;;;;;;;;;;;5067468;28;20390;-72
2024/03/10 09:12:38;;;;;;;;;;;;;;;;;;5067790;28;19929;-72
2024/03/10 09:15:06;;;;;;;;;;;;;;;;;;5079544;28;20112;-72
2024/03/10 09:17:36;;;;;;;;;;;;;;;;;;5065414;28;20499;-71
2024/03/10 09:20:03;;;;;;;;;;;;;;;;;;5061082;28;20050;-72
2024/03/10 09:22:31;;;;;;;;;;;;;;;;;;5063805;28;19939;-72
2024/03/10 09:24:58;;;;;;;;;;;;;;;;;;5056586;28;19985;-73
2024/03/10 09:27:25;;;;;;;;;;;;;;;;;;5062907;28;19982;-72
2024/03/10 09:29:52;;;;;;;;;;;;;;;;;;5064892;28;19928;-73
2024/03/10 09:32:22;;;;;;;;;;;;;;;;;;5066710;28;19959;-72
2024/03/10 09:34:49;;;;;;;;;;;;;;;;;;5067199;28;19924;-71
2024/03/10 09:37:16;;;;;;;;;;;;;;;;;;5065622;28;19932;-72
2024/03/10 09:39:44;;;;;;;;;;;;;;;;;;5058412;28;19925;-72
2024/03/10 09:42:14;;;;;;;;;;;;;;;;;;5058886;28;19928;-73
2024/03/10 09:44:42;;;;;;;;;;;;;;;;;;5061981;28;19924;-71
2024/03/10 09:47:09;;;;;;;;;;;;;;;;;;5063242;28;19929;-72
2024/03/10 09:49:37;;;;;;;;;;;;;;;;;;5063999;28;19962;-72
2024/03/10 09:52:06;;;;;;;;;;;;;;;;;;5066423;28;19946;-73
2024/03/10 09:54:34;;;;;;;;;;;;;;;;;;5063567;28;19935;-73
2024/03/10 09:57:01;;;;;;;;;;;;;;;;;;5064692;28;19928;-71
2024/03/10 09:59:28;;;;;;;;;;;;;;;;;;5066472;28;19981;-71
2024/03/10 10:01:55;;;;;;;;;;;;;;;;;;5066044;28;19928;-71
2024/03/10 10:04:25;;;;;;;;;;;;;;;;;;5069855;28;20036;-72
2024/03/10 10:06:52;;;;;;;;;;;;;;;;;;5060718;28;19935;-72
2024/03/10 10:09:21;;;;;;;;;;;;;;;;;;5064492;28;19976;-72
2024/03/10 10:11:48;;;;;;;;;;;;;;;;;;5064034;28;19935;-73
2024/03/10 10:14:15;;;;;;;;;;;;;;;;;;5071653;28;19985;-73
2024/03/10 10:16:42;;;;;;;;;;;;;;;;;;5071537;28;19939;-74
2024/03/10 10:19:10;;;;;;;;;;;;;;;;;;5053275;28;19928;-72
2024/03/10 10:21:40;;;;;;;;;;;;;;;;;;5068957;28;19928;-74
2024/03/10 10:24:10;;;;;;;;;;;;;;;;;;5065268;28;19928;-73
2024/03/10 10:26:39;;;;;;;;;;;;;;;;;;5062747;28;19928;-72
2024/03/10 10:29:07;;;;;;;;;;;;;;;;;;5053668;28;19929;-73
2024/03/10 10:31:34;;;;;;;;;;;;;;;;;;5070958;28;19982;-73
2024/03/10 10:34:01;;;;;;;;;;;;;;;;;;5069591;28;20340;-73
2024/03/10 10:36:28;;;;;;;;;;;;;;;;;;5059455;28;20383;-74
2024/03/10 10:38:55;;;;;;;;;;;;;;;;;;5071453;28;20441;-73
2024/03/10 10:41:24;;;;;;;;;;;;;;;;;;5070958;28;19968;-71
2024/03/10 10:43:52;;;;;;;;;;;;;;;;;;5068074;28;19928;-73
2024/03/10 10:46:19;;;;;;;;;;;;;;;;;;5056247;28;19938;-73
2024/03/10 10:48:46;;;;;;;;;;;;;;;;;;5071437;28;19974;-73
2024/03/10 10:51:14;;;;;;;;;;;;;;;;;;5067343;28;20023;-73
2024/03/10 10:53:43;;;;;;;;;;;;;;;;;;5067549;28;19928;-72
2024/03/10 10:56:11;;;;;;;;;;;;;;;;;;5086378;28;20403;-72
2024/03/10 10:58:38;;;;;;;;;;;;;;;;;;5079004;28;20023;-71
2024/03/10 11:01:05;;;;;;;;;;;;;;;;;;5066470;28;19929;-72
2024/03/10 11:03:33;;;;;;;;;;;;;;;;;;5070706;28;20019;-72
2024/03/10 11:06:00;;;;;;;;;;;;;;;;;;5069401;28;19986;-71
2024/03/10 11:08:28;;;;;;;;;;;;;;;;;;5067716;28;19929;-71
2024/03/10 11:10:55;;;;;;;;;;;;;;;;;;5051782;28;19935;-72
2024/03/10 11:13:22;;;;;;;;;;;;;;;;;;5056556;28;20506;-71
2024/03/10 11:15:49;;;;;;;;;;;;;;;;;;5067218;28;19928;-72
2024/03/10 11:18:16;;;;;;;;;;;;;;;;;;5062334;28;20009;-71
2024/03/10 11:20:44;;;;;;;;;;;;;;;;;;5057861;28;19972;-71
2024/03/10 11:23:11;;;;;;;;;;;;;;;;;;5065878;28;20299;-72
2024/03/10 11:25:38;;;;;;;;;;;;;;;;;;5066702;28;20330;-72
2024/03/10 11:28:06;;;;;;;;;;;;;;;;;;5065076;28;19971;-72
2024/03/10 11:30:33;;;;;;;;;;;;;;;;;;5061037;28;19936;-72
2024/03/10 11:33:00;;;;;;;;;;;;;;;;;;5073614;28;19971;-72
2024/03/10 11:35:27;;;;;;;;;;;;;;;;;;5063800;28;20471;-71
2024/03/10 11:37:55;;;;;;;;;;;;;;;;;;5070063;28;19937;-71
2024/03/10 11:40:22;;;;;;;;;;;;;;;;;;5070305;28;19951;-72
2024/03/10 11:42:49;;;;;;;;;;;;;;;;;;5064352;28;20439;-72
2024/03/10 11:45:16;;;;;;;;;;;;;;;;;;5072302;28;19928;-72
2024/03/10 11:47:44;;;;;;;;;;;;;;;;;;5069883;28;19963;-72
2024/03/10 11:50:11;;;;;;;;;;;;;;;;;;5070698;28;19932;-71
2024/03/10 11:52:38;;;;;;;;;;;;;;;;;;5068663;28;19978;-71
2024/03/10 11:55:11;;;;;;;;;;;;;;;;;;5055661;28;20400;-71
2024/03/10 11:57:38;;;;;;;;;;;;;;;;;;5064024;28;20023;-72
2024/03/10 12:00:06;;;;;;;;;;;;;;;;;;5065288;28;19978;-71
2024/03/10 12:02:33;;;;;;;;;;;;;;;;;;5065775;28;19929;-72
2024/03/10 12:05:00;;;;;;;;;;;;;;;;;;5061628;28;20378;-73
2024/03/10 12:07:27;;;;;;;;;;;;;;;;;;5052264;28;19932;-73
2024/03/10 12:09:54;;;;;;;;;;;;;;;;;;5065165;28;20353;-72
2024/03/10 12:12:21;;;;;;;;;;;;;;;;;;5066773;28;19928;-73
2024/03/10 12:14:48;;;;;;;;;;;;;;;;;;5053203;28;19965;-73
2024/03/10 12:17:15;;;;;;;;;;;;;;;;;;5072493;28;19929;-73
2024/03/10 12:19:43;;;;;;;;;;;;;;;;;;5063358;28;19928;-73
2024/03/10 12:22:11;;;;;;;;;;;;;;;;;;5063743;28;20295;-72
2024/03/10 12:24:39;;;;;;;;;;;;;;;;;;5059669;28;20351;-72
2024/03/10 12:27:07;;;;;;;;;;;;;;;;;;5061045;28;19932;-75
2024/03/10 12:29:34;;;;;;;;;;;;;;;;;;5064609;28;19932;-75
2024/03/10 12:32:01;;;;;;;;;;;;;;;;;;5063509;28;20379;-74
2024/03/10 12:34:28;;;;;;;;;;;;;;;;;;5064036;28;20010;-73
2024/03/10 12:36:57;;;;;;;;;;;;;;;;;;5067404;28;19970;-73
2024/03/10 12:39:24;;;;;;;;;;;;;;;;;;5065432;28;20009;-73
2024/03/10 12:41:51;;;;;;;;;;;;;;;;;;5065351;28;19982;-74
2024/03/10 12:44:18;;;;;;;;;;;;;;;;;;5069716;28;20016;-73
2024/03/10 12:46:46;;;;;;;;;;;;;;;;;;5078785;28;19939;-73
2024/03/10 12:49:13;;;;;;;;;;;;;;;;;;5072945;28;19975;-72
2024/03/10 12:51:40;;;;;;;;;;;;;;;;;;5076869;28;19932;-72
2024/03/10 12:54:07;;;;;;;;;;;;;;;;;;5077309;28;19971;-73
2024/03/10 12:56:34;;;;;;;;;;;;;;;;;;5071238;28;19932;-73
2024/03/10 12:59:02;;;;;;;;;;;;;;;;;;5065149;28;20026;-73
2024/03/10 13:01:29;;;;;;;;;;;;;;;;;;5067833;28;19929;-73
2024/03/10 13:03:56;;;;;;;;;;;;;;;;;;5072149;28;19971;-73
2024/03/10 13:06:23;;;;;;;;;;;;;;;;;;5073604;28;20040;-72
2024/03/10 13:08:50;;;;;;;;;;;;;;;;;;5064736;28;19936;-72
2024/03/10 13:11:18;;;;;;;;;;;;;;;;;;5066924;28;19929;-73
2024/03/10 13:13:46;;;;;;;;;;;;;;;;;;5068952;28;19928;-74
2024/03/10 13:16:13;;;;;;;;;;;;;;;;;;5068773;28;19935;-73
2024/03/10 13:18:42;;;;;;;;;;;;;;;;;;5064434;28;19929;-74
2024/03/10 13:21:09;;;;;;;;;;;;;;;;;;5067244;28;19929;-74
2024/03/10 13:23:36;;;;;;;;;;;;;;;;;;5068624;28;19928;-74
2024/03/10 13:26:03;;;;;;;;;;;;;;;;;;5066973;28;20049;-74
2024/03/10 13:28:30;;;;;;;;;;;;;;;;;;5066364;28;20391;-73
2024/03/10 13:30:57;;;;;;;;;;;;;;;;;;5058915;28;20413;-73
2024/03/10 13:33:25;;;;;;;;;;;;;;;;;;5064801;28;19975;-72
2024/03/10 13:35:52;;;;;;;;;;;;;;;;;;5068211;28;20351;-73
2024/03/10 13:38:19;;;;;;;;;;;;;;;;;;5072336;28;19929;-73
2024/03/10 13:40:46;;;;;;;;;;;;;;;;;;5072090;28;19928;-73
2024/03/10 13:43:14;;;;;;;;;;;;;;;;;;5072302;28;20697;-73
2024/03/10 13:45:41;;;;;;;;;;;;;;;;;;5071488;28;19932;-72
2024/03/10 13:48:08;;;;;;;;;;;;;;;;;;5072012;28;19934;-73
2024/03/10 13:50:36;;;;;;;;;;;;;;;;;;5069397;28;19929;-73
2024/03/10 13:53:04;;;;;;;;;;;;;;;;;;5071656;28;19935;-72
2024/03/10 13:55:32;;;;;;;;;;;;;;;;;;5071384;28;20391;-72
2024/03/10 13:57:59;;;;;;;;;;;;;;;;;;5071583;28;19929;-69
2024/03/10 14:00:26;;;;;;;;;;;;;;;;;;5072197;28;19957;-72
2024/03/10 14:02:53;;;;;;;;;;;;;;;;;;5064895;28;19929;-72
2024/03/10 14:05:20;;;;;;;;;;;;;;;;;;5069837;28;20028;-73
2024/03/10 14:07:47;;;;;;;;;;;;;;;;;;5070455;28;19928;-73
2024/03/10 14:10:16;;;;;;;;;;;;;;;;;;5065143;28;19937;-72
2024/03/10 14:12:43;;;;;;;;;;;;;;;;;;5062292;28;19935;-72
2024/03/10 14:15:10;;;;;;;;;;;;;;;;;;5069533;28;19929;-73
2024/03/10 14:17:37;;;;;;;;;;;;;;;;;;5067665;28;19928;-73
2024/03/10 14:20:05;;;;;;;;;;;;;;;;;;5080671;28;19932;-70
2024/03/10 14:22:32;;;;;;;;;;;;;;;;;;5077056;28;19928;-70
2024/03/10 14:24:59;;;;;;;;;;;;;;;;;;5066292;28;19929;-72
2024/03/10 14:27:26;;;;;;;;;;;;;;;;;;5051709;28;19990;-72
2024/03/10 14:29:53;;;;;;;;;;;;;;;;;;5060761;28;19975;-72
2024/03/10 14:32:22;;;;;;;;;;;;;;;;;;5085398;28;19981;-71
2024/03/10 14:34:50;;;;;;;;;;;;;;;;;;5061025;28;19929;-71
2024/03/10 14:37:17;;;;;;;;;;;;;;;;;;5057857;28;20024;-71
2024/03/10 14:39:44;;;;;;;;;;;;;;;;;;5054357;28;20415;-71
2024/03/10 14:42:12;;;;;;;;;;;;;;;;;;5069554;28;20321;-72
2024/03/10 14:44:39;;;;;;;;;;;;;;;;;;5070425;28;20448;-72
2024/03/10 14:47:06;;;;;;;;;;;;;;;;;;5070620;28;19935;-72
2024/03/10 14:49:36;;;;;;;;;;;;;;;;;;5071005;28;19929;-72
2024/03/10 14:52:04;;;;;;;;;;;;;;;;;;5067301;28;20376;-72
2024/03/10 14:54:31;;;;;;;;;;;;;;;;;;5061631;28;19928;-72
2024/03/10 14:56:58;;;;;;;;;;;;;;;;;;5057829;28;19928;-72
2024/03/10 14:59:26;;;;;;;;;;;;;;;;;;5069783;28;19929;-72
2024/03/10 15:01:53;;;;;;;;;;;;;;;;;;5069312;28;19982;-72
2024/03/10 15:04:20;;;;;;;;;;;;;;;;;;5070698;28;19928;-71
2024/03/10 15:06:48;;;;;;;;;;;;;;;;;;5070062;28;19928;-71
2024/03/10 15:09:15;;;;;;;;;;;;;;;;;;5066828;28;19951;-72
2024/03/10 15:11:43;;;;;;;;;;;;;;;;;;5065089;28;20396;-72
2024/03/10 15:14:11;;;;;;;;;;;;;;;;;;5063169;28;19964;-72
2024/03/10 15:16:39;;;;;;;;;;;;;;;;;;5068091;28;19929;-72
2024/03/10 15:19:06;;;;;;;;;;;;;;;;;;5070865;28;19937;-73
2024/03/10 15:21:34;;;;;;;;;;;;;;;;;;5068661;28;19928;-73
2024/03/10 15:24:04;;;;;;;;;;;;;;;;;;5070349;28;19928;-73
2024/03/10 15:26:32;;;;;;;;;;;;;;;;;;5066147;28;19941;-72
2024/03/10 15:28:59;;;;;;;;;;;;;;;;;;5063038;28;19928;-72
2024/03/10 15:31:26;;;;;;;;;;;;;;;;;;5064462;28;19959;-73
2024/03/10 15:33:53;;;;;;;;;;;;;;;;;;5062965;28;19928;-74
2024/03/10 15:36:20;;;;;;;;;;;;;;;;;;5069197;28;19928;-73
2024/03/10 15:38:47;;;;;;;;;;;;;;;;;;5069412;28;19928;-73
2024/03/10 15:41:14;;;;;;;;;;;;;;;;;;5075545;28;20399;-73
2024/03/10 15:43:42;;;;;;;;;;;;;;;;;;5069377;28;19979;-72
2024/03/10 15:46:10;;;;;;;;;;;;;;;;;;5074435;28;20050;-72
2024/03/10 15:48:37;;;;;;;;;;;;;;;;;;5069890;28;20353;-72
2024/03/10 15:51:04;;;;;;;;;;;;;;;;;;5063564;28;19972;-72
2024/03/10 15:53:32;;;;;;;;;;;;;;;;;;5066201;28;19963;-73
2024/03/10 15:55:59;;;;;;;;;;;;;;;;;;5068731;28;20033;-71
2024/03/10 15:58:26;;;;;;;;;;;;;;;;;;5067511;28;19959;-69
2024/03/10 16:00:53;;;;;;;;;;;;;;;;;;5066062;28;19971;-72
2024/03/10 16:03:21;;;;;;;;;;;;;;;;;;5069665;28;20345;-73
2024/03/10 16:05:48;;;;;;;;;;;;;;;;;;5068838;28;20011;-73
2024/03/10 16:08:15;;;;;;;;;;;;;;;;;;5063877;28;19932;-72
2024/03/10 16:10:44;;;;;;;;;;;;;;;;;;5064967;28;19982;-72
2024/03/10 16:13:11;;;;;;;;;;;;;;;;;;5053066;28;19982;-72
2024/03/10 16:15:38;;;;;;;;;;;;;;;;;;5063869;28;19929;-72
2024/03/10 16:18:05;;;;;;;;;;;;;;;;;;5056704;28;19938;-72
2024/03/10 16:20:33;;;;;;;;;;;;;;;;;;5055925;28;19928;-72
2024/03/10 16:23:00;;;;;;;;;;;;;;;;;;5065184;28;20043;-72
2024/03/10 16:25:27;;;;;;;;;;;;;;;;;;5062861;28;19929;-73
2024/03/10 16:27:56;;;;;;;;;;;;;;;;;;5068518;28;19964;-72
2024/03/10 16:30:23;;;;;;;;;;;;;;;;;;5062120;28;20023;-72
2024/03/10 16:32:50;;;;;;;;;;;;;;;;;;5067737;28;20025;-71
2024/03/10 16:35:17;;;;;;;;;;;;;;;;;;5066326;28;20311;-71
2024/03/10 16:37:44;;;;;;;;;;;;;;;;;;5057665;28;20082;-71
2024/03/10 16:40:12;;;;;;;;;;;;;;;;;;5062730;28;19936;-71
2024/03/10 16:42:40;;;;;;;;;;;;;;;;;;5056477;28;19928;-72
2024/03/10 16:45:08;;;;;;;;;;;;;;;;;;5061059;28;19928;-71
2024/03/10 16:47:35;;;;;;;;;;;;;;;;;;5072814;28;19954;-71
2024/03/10 16:50:02;;;;;;;;;;;;;;;;;;5058143;28;19979;-71
2024/03/10 16:52:30;;;;;;;;;;;;;;;;;;5049014;28;19998;-71
2024/03/10 16:54:59;;;;;;;;;;;;;;;;;;5066627;28;19932;-72
2024/03/10 16:57:26;;;;;;;;;;;;;;;;;;5063937;28;19928;-72
2024/03/10 16:59:53;;;;;;;;;;;;;;;;;;5068831;28;20388;-71
2024/03/10 17:02:20;;;;;;;;;;;;;;;;;;5062103;28;19929;-71
2024/03/10 17:04:47;;;;;;;;;;;;;;;;;;5064026;28;20053;-72
2024/03/10 17:07:14;;;;;;;;;;;;;;;;;;5066224;28;19928;-71
2024/03/10 17:09:41;;;;;;;;;;;;;;;;;;5066428;28;20354;-72